Villa Castelli, Argentina
Current Conditions -  °F | °C
As of 9:00 AM on Saturday 25 Oct 2014 (Local Time) from SCSE Reporting Station
Drizzle Drizzle  
Wind Chill: 13°   Ceiling: 800
Heat Index: 13°   Visibility: 4mi
Dew Point: 12°   Wind: 0mph
Humidity: 94%   Direction: NA
Pressure: 29.91"   Gusts: NA
Location:  29°S, 68.18°W
Report Text: SCSE 251200Z 00000KT 6000 -DZ BR OVC008 13/12 Q1013
Loading
Personal Weather Stations






























Interactive Weather Map
Tropical Storm Tracking
New forecast layout! Learn more

10-Day Weather Forecast

Advertisements
Track Severe Weather on mobile